Impacts METAR Board
IDs:

KMDW - Chicago/Midway Intl, IL, US

Updated at: 1200 UTC 16 Oct 2018
Potential Impact None Slight Moderate High
Time 16/00Z 16/01Z 16/02Z 16/03Z 16/04Z 16/05Z 16/06Z 16/07Z 16/08Z 16/09Z 16/10Z 16/11Z 16/12Z
Temp44 43 42 41 38 38 37 37 35 35 34 35 35
Dewpt26 27 28 28 29 29 29 29 29 29 28 29 29
Altim30.24 30.25 30.25 30.24 30.24 30.24 30.24 30.25 30.24 30.24 30.23 30.22 30.22
VIS10 10 10 10 10 10 10 10 10 10 10 10 10
CIG-- -- -- -- -- -- -- -- -- -- -- -- --
CoverFEWCLRCLRCLRCLRCLRCLRCLRCLRCLRCLRCLRCLR
FltCatVFRVFRVFRVFRVFRVFRVFRVFRVFRVFRVFRVFRVFR
WX--------------------------
WDir290280270270210260250220220210210220210
WSpd7 6 6 5 5 7 6 6 8 7 6 6 8
WGst-- -- -- -- -- -- -- -- -- -- -- -- --
Raw hourly METARs
KMDW 152353Z 29007KT 10SM FEW250 07/M03 A3024 RMK AO2 SLP247 T00671033 10089 20067 53014
KMDW 160053Z 28006KT 10SM CLR 06/M03 A3025 RMK AO2 SLP250 T00611028
KMDW 160153Z 27006KT 10SM CLR 06/M02 A3025 RMK AO2 SLP251 T00561022
KMDW 160253Z 27005KT 10SM CLR 05/M02 A3024 RMK AO2 SLP249 T00501022 50003
KMDW 160353Z 21005KT 10SM CLR 03/M02 A3024 RMK AO2 SLP249 T00331017
KMDW 160453Z 26007KT 10SM CLR 03/M02 A3024 RMK AO2 SLP247 T00331017
KMDW 160553Z 25006KT 10SM CLR 03/M02 A3024 RMK AO2 SLP248 T00281017 10072 20028 400890028 55002
KMDW 160653Z 22006KT 10SM CLR 03/M02 A3025 RMK AO2 SLP249 T00281017
KMDW 160753Z 22008KT 10SM CLR 02/M02 A3024 RMK AO2 SLP248 T00171017
KMDW 160853Z 21007KT 10SM CLR 02/M02 A3024 RMK AO2 SLP247 T00171017 50000
KMDW 160953Z 21006KT 10SM CLR 01/M02 A3023 RMK AO2 SLP243 T00111022
KMDW 161053Z 22006KT 10SM CLR 02/M02 A3022 RMK AO2 SLP242 T00171017
KMDW 161153Z 21008KT 10SM CLR 02/M02 A3022 RMK AO2 SLP240 T00171017 10028 20011 56007



Page loaded:  12:18 UTC  |   05:18 AM Pacific  |   06:18 AM Mountain  |   07:18 AM Central  |   08:18 AM Eastern

 

ADVISORIES

FORECASTS

FORECASTS

OBSERVATIONS

USER TOOLS

ABOUT US